This is the latest recevied weather packets stored in our database for station/object GW7287. If no packets are shown the sender has not sent any weather packets the latest 10 day(s).
| Time | Temp. | Humidity | Pressure | Rain* | Wind** | Luminosity | Snow |
|---|---|---|---|---|---|---|---|
| 1787960268 | 16.11° C | 69% | 936.6 hPa | - | - | - | - |
| 1787948998 | 18.89° C | 57% | 936.5 hPa | - | - | - | - |
| 1787927288 | 23.33° C | 43% | 936.2 hPa | - | - | - | - |
| 1787904210 | 10.56° C | 89% | 935.7 hPa | - | - | - | - |
| 1787883293 | 11.67° C | 83% | 934 hPa | - | - | - | - |
| 1787872959 | 13.89° C | 74% | 933.2 hPa | - | - | - | - |
| 1787854863 | 16.11° C | 74% | 929.4 hPa | - | - | - | - |
| 1787836915 | 18.89° C | 48% | 927.1 hPa | - | - | - | - |
| 1787815198 | 13.89° C | 93% | 926.7 hPa | - | - | - | - |
| 1787797540 | 15° C | 93% | 927.3 hPa | - | - | - | - |
| 1787788604 | 15.56° C | 93% | 928 hPa | - | - | - | - |
| 1787779739 | 15.56° C | 90% | 927.6 hPa | - | - | - | - |
| 1787776047 | 17.78° C | 74% | 927.9 hPa | - | - | - | - |
| 1787770266 | 18.89° C | 63% | 927.2 hPa | - | - | - | - |
| 1787767934 | 19.44° C | 55% | 926.9 hPa | - | - | - | - |
| 1787760740 | 21.11° C | 54% | 926 hPa | - | - | - | - |
| 1787760608 | 21.11° C | 54% | 926 hPa | - | - | - | - |
| 1787755022 | 23.33° C | 39% | 926.4 hPa | - | - | - | - |
| 1787754906 | 23.33° C | 39% | 926.4 hPa | - | - | - | - |
| 1787752119 | 25° C | 37% | 926.2 hPa | - | - | - | - |
| 1787751920 | 25° C | 37% | 926.2 hPa | - | - | - | - |
| 1787747893 | 25.56° C | 37% | 926.6 hPa | - | - | - | - |
| 1787747518 | 25.56° C | 37% | 926.6 hPa | - | - | - | - |
| 1787745231 | 25° C | 38% | 926.5 hPa | - | - | - | - |
| 1787743196 | 24.44° C | 40% | 927 hPa | - | - | - | - |
* Rain since midnight (hover to see other rain measurements)
** Current wind speed in m/s (hover to see current wind gust speed)